createdAt,value
2024-02-26T00:00:34.858Z,35.47
2024-02-26T00:01:34.776Z,35.44
2024-02-26T00:02:34.809Z,35.45
2024-02-26T00:03:34.904Z,35.43
2024-02-26T00:04:34.845Z,35.37
2024-02-26T00:05:34.907Z,35.38
2024-02-26T00:06:34.936Z,35.37
2024-02-26T00:07:34.907Z,35.37
2024-02-26T00:08:34.928Z,35.35
2024-02-26T00:09:34.943Z,35.33
2024-02-26T00:10:34.969Z,35.36
2024-02-26T00:11:35.043Z,35.35
2024-02-26T00:12:35.014Z,35.32
2024-02-26T00:13:35.071Z,35.33
2024-02-26T00:14:35.081Z,35.28
2024-02-26T00:15:35.101Z,35.30
2024-02-26T00:16:35.109Z,35.35
2024-02-26T00:17:35.178Z,35.33
2024-02-26T00:18:35.303Z,35.35
2024-02-26T00:19:35.270Z,35.36
2024-02-26T00:20:35.241Z,35.35
2024-02-26T00:21:35.267Z,35.34
2024-02-26T00:22:35.278Z,35.27
2024-02-26T00:23:35.310Z,35.31
2024-02-26T00:24:35.315Z,35.27
2024-02-26T00:25:35.382Z,35.29
2024-02-26T00:26:35.359Z,35.27
2024-02-26T00:27:35.393Z,35.29
2024-02-26T00:28:35.428Z,35.28
2024-02-26T00:29:35.436Z,35.31
2024-02-26T00:30:35.526Z,35.28
2024-02-26T00:31:35.497Z,35.24
2024-02-26T00:32:35.542Z,35.30
2024-02-26T00:33:35.762Z,35.27
2024-02-26T00:34:35.599Z,35.24
2024-02-26T00:35:35.573Z,35.24
2024-02-26T00:36:35.608Z,35.28
2024-02-26T00:37:35.607Z,35.29
2024-02-26T00:38:35.628Z,35.26
2024-02-26T00:39:35.649Z,35.21
2024-02-26T00:40:35.718Z,35.22
2024-02-26T00:41:35.727Z,35.23
2024-02-26T00:42:35.754Z,35.24
2024-02-26T00:43:35.757Z,35.24
2024-02-26T00:44:35.787Z,35.25
2024-02-26T00:45:35.815Z,35.21
2024-02-26T00:46:35.835Z,35.22
2024-02-26T00:47:35.909Z,35.17
2024-02-26T00:48:35.985Z,35.20
2024-02-26T00:49:35.955Z,35.18
2024-02-26T00:50:35.963Z,35.20
2024-02-26T00:51:36.010Z,35.25
2024-02-26T00:52:35.982Z,35.19
2024-02-26T00:53:36.022Z,35.17
2024-02-26T00:54:36.035Z,35.19
2024-02-26T00:55:36.102Z,35.20
2024-02-26T00:56:36.094Z,35.20
2024-02-26T00:57:36.128Z,35.21
2024-02-26T00:58:36.167Z,35.22
2024-02-26T00:59:36.167Z,35.19
2024-02-26T01:00:36.196Z,35.17
2024-02-26T01:01:36.202Z,35.17
2024-02-26T01:02:36.252Z,35.17
2024-02-26T01:03:36.298Z,35.16
2024-02-26T01:04:36.294Z,35.11
2024-02-26T01:05:36.286Z,35.09
2024-02-26T01:06:36.401Z,35.14
2024-02-26T01:07:36.454Z,35.11
2024-02-26T01:08:36.380Z,35.14
2024-02-26T01:09:36.386Z,35.15
2024-02-26T01:10:36.432Z,35.16
2024-02-26T01:11:36.496Z,35.16
2024-02-26T01:12:36.462Z,35.15
2024-02-26T01:13:36.503Z,35.11
2024-02-26T01:14:36.523Z,35.10
2024-02-26T01:15:36.536Z,35.12
2024-02-26T01:16:36.591Z,35.13
2024-02-26T01:17:36.667Z,35.14
2024-02-26T01:18:36.745Z,35.10
2024-02-26T01:19:36.675Z,35.04
2024-02-26T01:20:36.642Z,35.11
2024-02-26T01:21:36.689Z,35.11
2024-02-26T01:22:36.684Z,35.08
2024-02-26T01:23:36.728Z,35.06
2024-02-26T01:24:36.729Z,35.03
2024-02-26T01:25:36.763Z,35.06
2024-02-26T01:26:36.761Z,35.02
2024-02-26T01:27:36.794Z,35.01
2024-02-26T01:28:36.842Z,35.05
2024-02-26T01:29:36.852Z,35.06
2024-02-26T01:30:36.899Z,35.07
2024-02-26T01:31:36.917Z,35.07
2024-02-26T01:32:36.965Z,35.05
2024-02-26T01:33:37.099Z,35.06
2024-02-26T01:34:37.014Z,35.02
2024-02-26T01:35:37.005Z,35.03
2024-02-26T01:36:37.010Z,35.07
2024-02-26T01:37:37.023Z,35.04
2024-02-26T01:38:37.056Z,35.02
2024-02-26T01:39:37.082Z,35.06
2024-02-26T01:40:37.092Z,35.05
2024-02-26T01:41:37.114Z,35.02
2024-02-26T01:42:37.136Z,34.98
2024-02-26T01:43:37.161Z,35.04
2024-02-26T01:44:37.186Z,35.07
2024-02-26T01:45:37.216Z,35.05
2024-02-26T01:46:37.223Z,35.03
2024-02-26T01:47:37.251Z,35.01
2024-02-26T01:48:37.385Z,35.03
2024-02-26T01:49:37.371Z,35.01
2024-02-26T01:50:37.317Z,35.00
2024-02-26T01:51:37.387Z,34.97
2024-02-26T01:52:37.383Z,35.00
2024-02-26T01:53:37.396Z,34.95
2024-02-26T01:54:37.431Z,34.96
2024-02-26T01:55:37.446Z,34.98
2024-02-26T01:56:37.471Z,35.01
2024-02-26T01:57:37.522Z,34.99
2024-02-26T01:58:37.544Z,34.99
2024-02-26T01:59:37.565Z,34.97
2024-02-26T02:00:37.661Z,34.94
2024-02-26T02:01:37.572Z,34.95
2024-02-26T02:02:37.609Z,34.95
2024-02-26T02:03:37.726Z,34.94
2024-02-26T02:04:37.650Z,34.95
2024-02-26T02:05:37.685Z,34.94
2024-02-26T02:06:37.764Z,34.98
2024-02-26T02:07:37.733Z,34.96
2024-02-26T02:08:37.760Z,34.96
2024-02-26T02:09:37.769Z,34.95
2024-02-26T02:10:37.818Z,34.89
2024-02-26T02:11:37.840Z,34.96
2024-02-26T02:12:37.872Z,34.95
2024-02-26T02:13:37.885Z,34.89
2024-02-26T02:14:37.900Z,34.91
2024-02-26T02:15:37.969Z,34.91
2024-02-26T02:16:37.963Z,34.88
2024-02-26T02:17:38.042Z,34.91
2024-02-26T02:18:38.068Z,34.95
2024-02-26T02:19:38.129Z,34.90
2024-02-26T02:20:38.062Z,34.85
2024-02-26T02:21:38.098Z,34.88
2024-02-26T02:22:38.114Z,34.87
2024-02-26T02:23:38.165Z,34.88
2024-02-26T02:24:38.362Z,34.86
2024-02-26T02:25:38.237Z,34.86
2024-02-26T02:26:38.215Z,34.82
2024-02-26T02:27:38.321Z,34.81
2024-02-26T02:28:38.292Z,34.84
2024-02-26T02:29:38.282Z,34.85
2024-02-26T02:30:38.321Z,34.84
2024-02-26T02:31:38.407Z,34.83
2024-02-26T02:32:38.371Z,34.86
2024-02-26T02:33:38.605Z,34.83
2024-02-26T02:34:38.502Z,34.82
2024-02-26T02:35:38.428Z,34.83
2024-02-26T02:36:38.480Z,34.85
2024-02-26T02:37:38.488Z,34.86
2024-02-26T02:38:38.512Z,34.83
2024-02-26T02:39:38.524Z,34.82
2024-02-26T02:40:38.561Z,34.85
2024-02-26T02:41:38.592Z,34.83
2024-02-26T02:42:38.610Z,34.83
2024-02-26T02:43:38.620Z,34.82
2024-02-26T02:44:38.647Z,34.85
2024-02-26T02:45:38.678Z,34.86
2024-02-26T02:46:38.700Z,34.83
2024-02-26T02:47:38.777Z,34.83
2024-02-26T02:48:38.823Z,34.86
2024-02-26T02:49:38.902Z,34.85
2024-02-26T02:50:38.820Z,34.86
2024-02-26T02:51:38.865Z,34.86
2024-02-26T02:52:38.862Z,34.82
2024-02-26T02:53:38.940Z,34.84
2024-02-26T02:54:38.890Z,34.86
2024-02-26T02:55:38.916Z,34.83
2024-02-26T02:56:38.939Z,34.85
2024-02-26T02:57:38.956Z,34.81
2024-02-26T02:58:38.993Z,34.81
2024-02-26T02:59:39.022Z,34.80
2024-02-26T03:00:39.161Z,34.82
2024-02-26T03:01:39.072Z,34.81
2024-02-26T03:02:39.096Z,34.81
2024-02-26T03:03:39.125Z,34.84
2024-02-26T03:04:39.231Z,34.83
2024-02-26T03:05:39.195Z,34.78
2024-02-26T03:06:39.290Z,34.78
2024-02-26T03:07:39.190Z,34.80
2024-02-26T03:08:39.363Z,34.80
2024-02-26T03:09:39.226Z,34.76
2024-02-26T03:10:39.246Z,34.77
2024-02-26T03:11:39.278Z,34.74
2024-02-26T03:12:39.290Z,34.81
2024-02-26T03:13:39.332Z,34.79
2024-02-26T03:14:39.371Z,34.80
2024-02-26T03:15:39.408Z,34.81
2024-02-26T03:16:39.423Z,34.79
2024-02-26T03:17:39.485Z,34.77
2024-02-26T03:18:39.534Z,34.77
2024-02-26T03:19:39.487Z,34.78
2024-02-26T03:20:39.608Z,34.84
2024-02-26T03:21:39.497Z,34.79
2024-02-26T03:22:39.554Z,34.77
2024-02-26T03:23:39.650Z,34.78
2024-02-26T03:24:39.617Z,34.81
2024-02-26T03:25:39.612Z,34.79
2024-02-26T03:26:39.680Z,34.79
2024-02-26T03:27:39.646Z,34.78
2024-02-26T03:28:39.678Z,34.79
2024-02-26T03:29:39.796Z,34.80
2024-02-26T03:30:39.736Z,34.80
2024-02-26T03:31:39.738Z,34.82
2024-02-26T03:32:39.831Z,34.79
2024-02-26T03:33:39.925Z,34.75
2024-02-26T03:34:40.002Z,34.73
2024-02-26T03:35:39.887Z,34.79
2024-02-26T03:36:39.895Z,34.83
2024-02-26T03:37:39.909Z,34.83
2024-02-26T03:38:39.982Z,34.80
2024-02-26T03:39:39.950Z,34.74
2024-02-26T03:40:39.979Z,34.77
2024-02-26T03:41:40.029Z,34.75
2024-02-26T03:42:40.027Z,34.73
2024-02-26T03:43:40.042Z,34.78
2024-02-26T03:44:40.128Z,34.80
2024-02-26T03:45:40.144Z,34.79
2024-02-26T03:46:40.117Z,34.77
2024-02-26T03:47:40.309Z,34.81
2024-02-26T03:48:40.304Z,34.80
2024-02-26T03:49:40.343Z,34.79
2024-02-26T03:50:40.303Z,34.77
2024-02-26T03:51:40.248Z,34.77
2024-02-26T03:52:40.245Z,34.79
2024-02-26T03:53:40.301Z,34.84
2024-02-26T03:54:40.285Z,34.86
2024-02-26T03:55:40.298Z,34.86
2024-02-26T03:56:40.335Z,34.84
2024-02-26T03:57:40.330Z,34.87
2024-02-26T03:58:40.350Z,34.82
2024-02-26T03:59:40.362Z,34.84
2024-02-26T04:00:40.455Z,34.79
2024-02-26T04:01:40.366Z,34.79
2024-02-26T04:02:40.377Z,34.80
2024-02-26T04:03:40.403Z,34.77
2024-02-26T04:04:40.461Z,34.74
2024-02-26T04:05:40.582Z,34.73
2024-02-26T04:06:40.429Z,34.72
2024-02-26T04:07:40.392Z,34.74
2024-02-26T04:08:40.427Z,34.73
2024-02-26T04:09:40.400Z,34.69
2024-02-26T04:10:40.496Z,34.67
2024-02-26T04:11:40.465Z,34.66
2024-02-26T04:12:40.452Z,34.66
2024-02-26T04:13:40.440Z,34.62
2024-02-26T04:14:40.492Z,34.61
2024-02-26T04:15:40.508Z,34.61
2024-02-26T04:16:40.546Z,34.59
2024-02-26T04:17:40.643Z,34.59
2024-02-26T04:18:40.741Z,34.59
2024-02-26T04:19:40.749Z,34.59
2024-02-26T04:20:40.737Z,34.56
2024-02-26T04:21:40.769Z,34.56
2024-02-26T04:22:40.844Z,34.55
2024-02-26T04:23:40.936Z,34.56
2024-02-26T04:24:40.981Z,34.54
2024-02-26T04:25:41.036Z,34.55
2024-02-26T04:26:41.178Z,34.53
2024-02-26T04:27:41.190Z,34.53
2024-02-26T04:28:41.266Z,34.53
2024-02-26T04:29:41.365Z,34.53
2024-02-26T04:30:41.396Z,34.53
2024-02-26T04:31:41.468Z,34.51
2024-02-26T04:32:41.555Z,34.53
2024-02-26T04:33:41.693Z,34.50
2024-02-26T04:34:41.686Z,34.47
2024-02-26T04:35:41.765Z,34.50
2024-02-26T04:36:41.805Z,34.49
2024-02-26T04:37:41.879Z,34.48
2024-02-26T04:38:41.949Z,34.44
2024-02-26T04:39:51.124Z,34.50
2024-02-26T04:40:49.211Z,34.50
2024-02-26T04:41:49.238Z,34.48
2024-02-26T04:42:49.203Z,34.42
2024-02-26T04:43:49.214Z,34.44
2024-02-26T04:44:49.301Z,34.43
2024-02-26T04:45:49.364Z,34.46
2024-02-26T04:46:49.440Z,34.43
2024-02-26T04:47:49.569Z,34.42
2024-02-26T04:48:49.710Z,34.40
2024-02-26T04:49:49.652Z,34.40
2024-02-26T04:50:49.822Z,34.40
2024-02-26T04:51:49.762Z,34.41
2024-02-26T04:52:49.839Z,34.37
2024-02-26T04:53:49.944Z,34.37
2024-02-26T04:54:49.956Z,34.38
2024-02-26T04:55:50.004Z,34.39
2024-02-26T04:56:50.084Z,34.40
2024-02-26T04:57:50.138Z,34.39
2024-02-26T04:58:50.193Z,34.38
2024-02-26T04:59:50.333Z,34.38
2024-02-26T05:00:50.359Z,34.38
2024-02-26T05:01:50.433Z,34.41
2024-02-26T05:02:50.524Z,34.37
2024-02-26T05:03:50.616Z,34.41
2024-02-26T05:04:50.614Z,34.39
2024-02-26T05:05:50.802Z,34.40
2024-02-26T05:06:50.761Z,34.38
2024-02-26T05:07:50.799Z,34.38
2024-02-26T05:08:50.922Z,34.39
2024-02-26T05:09:51.083Z,34.40
2024-02-26T05:10:51.015Z,34.40
2024-02-26T05:11:51.071Z,34.39
2024-02-26T05:12:51.096Z,34.39
2024-02-26T05:13:51.178Z,34.41
2024-02-26T05:14:51.281Z,34.41
2024-02-26T05:15:51.322Z,34.38
2024-02-26T05:16:51.344Z,34.40
2024-02-26T05:17:51.476Z,34.40
2024-02-26T05:18:51.543Z,34.37
2024-02-26T05:19:51.600Z,34.37
2024-02-26T05:20:51.621Z,34.36
2024-02-26T05:21:51.786Z,34.35
2024-02-26T05:22:51.688Z,34.37
2024-02-26T05:23:51.787Z,34.37
2024-02-26T05:24:51.806Z,34.37
2024-02-26T05:25:51.908Z,34.37
2024-02-26T05:26:52.004Z,34.36
2024-02-26T05:27:51.995Z,34.33
2024-02-26T05:28:52.070Z,34.34
2024-02-26T05:29:52.124Z,34.35
2024-02-26T05:30:52.144Z,34.34
2024-02-26T05:31:52.197Z,34.34
2024-02-26T05:32:52.284Z,34.33
2024-02-26T05:33:52.375Z,34.35
2024-02-26T05:34:52.387Z,34.33
2024-02-26T05:35:52.478Z,34.33
2024-02-26T05:36:52.489Z,34.31
2024-02-26T05:37:52.542Z,34.34
2024-02-26T05:38:52.666Z,34.29
2024-02-26T05:39:52.619Z,34.31
2024-02-26T05:40:52.677Z,34.30
2024-02-26T05:41:52.784Z,34.31
2024-02-26T05:42:52.786Z,34.27
2024-02-26T05:43:52.848Z,34.27
2024-02-26T05:44:52.926Z,34.28
2024-02-26T05:45:53.002Z,34.29
2024-02-26T05:46:52.991Z,34.30
2024-02-26T05:47:53.108Z,34.31
2024-02-26T05:48:53.225Z,34.27
2024-02-26T05:49:53.207Z,34.25
2024-02-26T05:50:53.243Z,34.27
2024-02-26T05:51:53.263Z,34.28
2024-02-26T05:52:53.301Z,34.27
2024-02-26T05:53:53.383Z,34.27
2024-02-26T05:54:53.404Z,34.26
2024-02-26T05:55:53.457Z,34.27
2024-02-26T05:56:53.526Z,34.27
2024-02-26T05:57:53.577Z,34.27
2024-02-26T05:58:53.605Z,34.25
2024-02-26T05:59:53.691Z,34.26
2024-02-26T06:00:53.761Z,34.27
2024-02-26T06:01:53.766Z,34.27
2024-02-26T06:02:53.829Z,34.26
2024-02-26T06:03:53.905Z,34.21
2024-02-26T06:04:53.920Z,34.23
2024-02-26T06:05:54.014Z,34.23
2024-02-26T06:06:54.031Z,34.23
2024-02-26T06:07:54.023Z,34.25
2024-02-26T06:08:54.074Z,34.21
2024-02-26T06:09:54.100Z,34.22
2024-02-26T06:10:54.184Z,34.19
2024-02-26T06:11:54.238Z,34.20
2024-02-26T06:12:54.275Z,34.19
2024-02-26T06:13:54.289Z,34.17
2024-02-26T06:14:54.334Z,34.16
2024-02-26T06:15:54.380Z,34.20
2024-02-26T06:16:54.407Z,34.15
2024-02-26T06:17:54.543Z,34.17
2024-02-26T06:18:54.609Z,34.17
2024-02-26T06:19:54.571Z,34.14
2024-02-26T06:20:54.651Z,34.15
2024-02-26T06:21:54.617Z,34.09
2024-02-26T06:22:54.656Z,34.13
2024-02-26T06:23:54.784Z,34.22
2024-02-26T06:24:54.810Z,34.19
2024-02-26T06:25:54.822Z,34.16
2024-02-26T06:26:54.896Z,34.17
2024-02-26T06:27:54.890Z,34.18
2024-02-26T06:28:54.932Z,34.15
2024-02-26T06:29:57.583Z,34.18
2024-02-26T06:30:54.997Z,34.18
2024-02-26T06:31:55.057Z,34.16
2024-02-26T06:32:55.103Z,34.17
2024-02-26T06:33:55.097Z,33.97
2024-02-26T06:34:55.136Z,34.02
2024-02-26T06:35:55.007Z,34.13
2024-02-26T06:36:54.985Z,34.23
2024-02-26T06:37:55.177Z,34.33
2024-02-26T06:38:55.049Z,34.39
2024-02-26T06:39:54.973Z,34.58
2024-02-26T06:40:55.121Z,34.58
2024-02-26T06:41:55.033Z,34.85
2024-02-26T06:42:55.021Z,35.11
2024-02-26T06:43:54.995Z,35.34
2024-02-26T06:44:55.044Z,35.43
2024-02-26T06:45:55.444Z,35.64
2024-02-26T06:46:55.000Z,35.97
2024-02-26T06:47:55.174Z,36.52
2024-02-26T06:48:55.994Z,36.41
2024-02-26T06:49:55.296Z,36.73
2024-02-26T06:50:55.121Z,36.86
2024-02-26T06:51:55.051Z,37.36
2024-02-26T06:52:55.006Z,37.43
2024-02-26T06:53:55.084Z,37.56
2024-02-26T06:54:55.947Z,37.58
2024-02-26T06:55:55.027Z,37.64
2024-02-26T06:56:55.083Z,37.67
2024-02-26T06:57:55.007Z,37.74
2024-02-26T06:58:55.016Z,37.91
2024-02-26T06:59:55.036Z,38.08
2024-02-26T07:00:55.446Z,37.98
2024-02-26T07:01:55.133Z,38.22
2024-02-26T07:02:55.145Z,38.77
2024-02-26T07:03:55.042Z,38.70
2024-02-26T07:04:55.032Z,38.68
2024-02-26T07:05:55.206Z,38.48
2024-02-26T07:06:55.152Z,38.67
2024-02-26T07:07:55.028Z,38.81
2024-02-26T07:08:55.058Z,38.61
2024-02-26T07:09:55.025Z,38.71
2024-02-26T07:10:55.066Z,38.65
2024-02-26T07:11:56.206Z,38.74
2024-02-26T07:12:55.229Z,38.65
2024-02-26T07:13:55.240Z,38.79
2024-02-26T07:14:55.273Z,38.79
2024-02-26T07:15:55.337Z,38.88
2024-02-26T07:16:55.361Z,38.96
2024-02-26T07:17:56.546Z,39.07
2024-02-26T07:18:55.821Z,39.16
2024-02-26T07:19:55.586Z,39.14
2024-02-26T07:20:55.600Z,39.23
2024-02-26T07:21:55.600Z,39.19
2024-02-26T07:22:55.640Z,39.28
2024-02-26T07:23:55.709Z,39.37
2024-02-26T07:24:55.757Z,39.37
2024-02-26T07:25:55.927Z,39.45
2024-02-26T07:26:55.824Z,39.53
2024-02-26T07:27:55.841Z,39.62
2024-02-26T07:28:55.871Z,39.73
2024-02-26T07:29:55.985Z,39.40
2024-02-26T07:30:55.939Z,39.55
2024-02-26T07:31:55.971Z,39.69
2024-02-26T07:32:56.098Z,39.63
2024-02-26T07:33:56.195Z,39.68
2024-02-26T07:34:56.117Z,40.35
2024-02-26T07:35:56.312Z,40.44
2024-02-26T07:36:56.161Z,40.33
2024-02-26T07:37:56.201Z,40.61
2024-02-26T07:38:56.288Z,40.47
2024-02-26T07:39:56.292Z,40.46
2024-02-26T07:41:02.867Z,40.76
2024-02-26T07:41:57.369Z,40.82
2024-02-26T07:42:56.399Z,41.08
2024-02-26T07:43:56.327Z,41.09
2024-02-26T07:44:56.441Z,41.14
2024-02-26T07:45:56.366Z,41.03
2024-02-26T07:46:56.333Z,41.10
2024-02-26T07:47:56.429Z,41.13
2024-02-26T07:48:56.516Z,41.00
2024-02-26T07:49:56.380Z,40.61
2024-02-26T07:50:56.515Z,40.24
2024-02-26T07:51:56.333Z,40.43
2024-02-26T07:52:56.371Z,40.18
2024-02-26T07:53:56.432Z,40.08
2024-02-26T07:54:56.389Z,40.15
2024-02-26T07:55:56.337Z,40.10
2024-02-26T07:56:56.362Z,40.08
2024-02-26T07:57:56.349Z,40.07
2024-02-26T07:58:56.352Z,40.19
2024-02-26T07:59:56.432Z,40.35
2024-02-26T08:00:56.469Z,40.33
2024-02-26T08:01:58.895Z,40.54
2024-02-26T08:02:56.465Z,40.48
2024-02-26T08:03:56.489Z,40.47
2024-02-26T08:04:56.376Z,40.51
2024-02-26T08:05:56.553Z,40.57
2024-02-26T08:06:56.411Z,40.60
2024-02-26T08:07:56.357Z,40.63
2024-02-26T08:08:56.425Z,40.70
2024-02-26T08:09:56.492Z,40.69
2024-02-26T08:10:56.397Z,40.60
2024-02-26T08:11:56.388Z,40.60
2024-02-26T08:12:56.363Z,40.66
2024-02-26T08:13:56.404Z,40.84
2024-02-26T08:14:56.975Z,40.68
2024-02-26T08:15:56.391Z,40.79
2024-02-26T08:16:56.383Z,40.83
2024-02-26T08:17:56.530Z,40.92
2024-02-26T08:18:56.511Z,40.80
2024-02-26T08:19:56.448Z,40.97
2024-02-26T08:20:56.471Z,40.84
2024-02-26T08:21:56.378Z,40.86
2024-02-26T08:22:56.382Z,41.04
2024-02-26T08:23:56.416Z,41.00
2024-02-26T08:24:56.389Z,40.86
2024-02-26T08:25:56.384Z,41.01
2024-02-26T08:26:56.402Z,40.92
2024-02-26T08:27:56.385Z,41.05
2024-02-26T08:28:57.015Z,41.13
2024-02-26T08:29:56.408Z,41.06
2024-02-26T08:30:56.448Z,41.20
2024-02-26T08:31:56.404Z,41.38
2024-02-26T08:32:56.450Z,41.36
2024-02-26T08:33:56.703Z,41.42
2024-02-26T08:34:56.480Z,41.11
2024-02-26T08:35:56.434Z,38.83
2024-02-26T08:36:56.438Z,39.36
2024-02-26T08:37:56.437Z,39.16
2024-02-26T08:38:56.434Z,39.14
2024-02-26T08:39:56.450Z,38.51
2024-02-26T08:40:56.461Z,37.79
2024-02-26T08:41:56.496Z,36.97
2024-02-26T08:42:56.434Z,35.90
2024-02-26T08:43:56.422Z,36.21
2024-02-26T08:44:56.512Z,35.72
2024-02-26T08:45:56.486Z,35.56
2024-02-26T08:46:56.442Z,35.65
2024-02-26T08:47:56.626Z,35.47
2024-02-26T08:48:56.629Z,35.51
2024-02-26T08:49:56.473Z,35.36
2024-02-26T08:50:56.480Z,36.06
2024-02-26T08:51:56.449Z,36.26
2024-02-26T08:52:56.438Z,36.41
2024-02-26T08:53:56.464Z,36.51
2024-02-26T08:54:56.459Z,36.62
2024-02-26T08:55:56.947Z,36.88
2024-02-26T08:56:56.544Z,37.15
2024-02-26T08:57:56.498Z,37.46
2024-02-26T08:58:56.442Z,37.88
2024-02-26T08:59:56.505Z,38.36
2024-02-26T09:00:56.466Z,38.22
2024-02-26T09:01:56.443Z,38.26
2024-02-26T09:02:56.496Z,38.28
2024-02-26T09:03:56.525Z,38.22
2024-02-26T09:04:56.460Z,38.35
2024-02-26T09:05:57.027Z,38.70
2024-02-26T09:06:56.951Z,38.60
2024-02-26T09:07:56.466Z,38.84
2024-02-26T09:08:59.596Z,38.91
2024-02-26T09:09:56.481Z,39.11
2024-02-26T09:10:56.560Z,39.26
2024-02-26T09:11:56.601Z,39.47
2024-02-26T09:12:56.618Z,39.68
2024-02-26T09:13:56.498Z,39.88
2024-02-26T09:14:56.479Z,40.04
2024-02-26T09:15:56.947Z,40.25
2024-02-26T09:16:56.492Z,40.35
2024-02-26T09:17:56.624Z,40.51
2024-02-26T09:18:56.733Z,40.72
2024-02-26T09:19:56.852Z,40.94
2024-02-26T09:20:57.017Z,41.17
2024-02-26T09:21:56.964Z,41.38
2024-02-26T09:22:56.916Z,41.28
2024-02-26T09:23:57.107Z,41.00
2024-02-26T09:24:56.992Z,40.83
2024-02-26T09:25:57.016Z,37.36
2024-02-26T09:26:57.526Z,35.54
2024-02-26T09:27:57.098Z,33.26
2024-02-26T09:28:57.130Z,32.44
2024-02-26T09:29:57.192Z,31.86
2024-02-26T09:30:57.460Z,31.02
2024-02-26T09:31:57.234Z,31.62
2024-02-26T09:32:57.341Z,32.34
2024-02-26T09:34:01.173Z,32.86
2024-02-26T09:34:58.325Z,33.13
2024-02-26T09:35:57.354Z,33.52
2024-02-26T09:37:04.845Z,33.30
2024-02-26T09:37:58.362Z,33.62
2024-02-26T09:39:01.361Z,33.65
2024-02-26T09:39:57.436Z,33.70
2024-02-26T09:40:57.493Z,33.81
2024-02-26T09:41:57.410Z,33.96
2024-02-26T09:42:57.326Z,34.11
2024-02-26T09:43:57.409Z,34.29
2024-02-26T09:44:57.341Z,34.69
2024-02-26T09:45:57.370Z,34.85
2024-02-26T09:46:57.480Z,34.99
2024-02-26T09:47:57.704Z,35.15
2024-02-26T09:48:57.532Z,35.56
2024-02-26T09:49:57.416Z,36.00
2024-02-26T09:50:57.416Z,36.32
2024-02-26T09:51:57.474Z,36.35
2024-02-26T09:52:57.389Z,37.36
2024-02-26T09:53:57.407Z,37.15
2024-02-26T09:54:57.352Z,37.27
2024-02-26T09:55:57.443Z,37.45
2024-02-26T09:57:03.958Z,37.63
2024-02-26T09:57:58.536Z,37.86
2024-02-26T09:58:57.443Z,38.00
2024-02-26T09:59:57.401Z,38.23
2024-02-26T10:00:57.415Z,38.40
2024-02-26T10:01:57.378Z,38.52
2024-02-26T10:02:57.436Z,38.58
2024-02-26T10:03:57.460Z,38.72
2024-02-26T10:04:57.514Z,38.86
2024-02-26T10:05:57.504Z,38.96
2024-02-26T10:06:57.466Z,38.99
2024-02-26T10:07:57.393Z,39.23
2024-02-26T10:08:57.497Z,39.32
2024-02-26T10:09:57.403Z,39.47
2024-02-26T10:10:57.399Z,39.65
2024-02-26T10:11:57.541Z,39.69
2024-02-26T10:12:57.535Z,39.76
2024-02-26T10:13:57.382Z,39.91
2024-02-26T10:14:57.429Z,39.91
2024-02-26T10:15:57.386Z,40.04
2024-02-26T10:16:57.544Z,40.12
2024-02-26T10:17:57.650Z,40.22
2024-02-26T10:18:59.734Z,40.25
2024-02-26T10:19:57.625Z,40.40
2024-02-26T10:20:57.480Z,40.42
2024-02-26T10:21:57.577Z,40.52
2024-02-26T10:22:57.481Z,40.63
2024-02-26T10:23:57.569Z,40.67
2024-02-26T10:24:57.484Z,40.76
2024-02-26T10:25:57.493Z,40.83
2024-02-26T10:26:57.537Z,40.81
2024-02-26T10:27:57.579Z,40.82
2024-02-26T10:28:57.490Z,40.96
2024-02-26T10:29:57.498Z,41.02
2024-02-26T10:30:57.513Z,41.09
2024-02-26T10:31:58.029Z,41.57
2024-02-26T10:32:57.623Z,41.63
2024-02-26T10:33:58.009Z,40.82
2024-02-26T10:34:57.664Z,40.13
2024-02-26T10:35:57.528Z,39.72
2024-02-26T10:36:58.610Z,39.50
2024-02-26T10:37:57.512Z,39.42
2024-02-26T10:38:57.542Z,39.47
2024-02-26T10:39:57.572Z,39.42
2024-02-26T10:40:57.555Z,39.42
2024-02-26T10:41:58.044Z,39.24
2024-02-26T10:42:57.599Z,39.05
2024-02-26T10:43:57.604Z,38.89
2024-02-26T10:44:57.643Z,38.97
2024-02-26T10:45:57.575Z,39.23
2024-02-26T10:46:57.988Z,39.17
2024-02-26T10:47:57.732Z,39.05
2024-02-26T10:48:57.686Z,38.96
2024-02-26T10:49:57.645Z,38.81
2024-02-26T10:50:57.568Z,38.65
2024-02-26T10:51:57.667Z,38.56
2024-02-26T10:52:57.566Z,38.55
2024-02-26T10:54:01.436Z,38.73
2024-02-26T10:55:00.537Z,38.79
2024-02-26T10:55:57.573Z,38.71
2024-02-26T10:56:57.645Z,38.31
2024-02-26T10:57:57.554Z,38.62
2024-02-26T10:58:57.541Z,38.43
2024-02-26T10:59:57.822Z,38.40
2024-02-26T11:00:57.619Z,38.55
2024-02-26T11:01:57.551Z,38.49
2024-02-26T11:02:57.605Z,38.43
2024-02-26T11:03:57.675Z,38.53
2024-02-26T11:04:57.642Z,38.45
2024-02-26T11:05:57.648Z,38.40
2024-02-26T11:06:57.760Z,38.49
2024-02-26T11:07:57.554Z,38.72
2024-02-26T11:08:57.582Z,38.59
2024-02-26T11:09:57.550Z,38.65
2024-02-26T11:10:57.645Z,38.53
2024-02-26T11:11:57.637Z,38.63
2024-02-26T11:12:57.579Z,38.54
2024-02-26T11:13:57.566Z,38.57
2024-02-26T11:14:57.586Z,38.60
2024-02-26T11:15:57.689Z,38.37
2024-02-26T11:16:57.573Z,38.53
2024-02-26T11:17:57.659Z,38.53
2024-02-26T11:18:57.743Z,38.60
2024-02-26T11:19:57.574Z,38.57
2024-02-26T11:20:57.619Z,38.71
2024-02-26T11:21:59.050Z,38.50
2024-02-26T11:22:57.588Z,38.21
2024-02-26T11:23:57.617Z,38.41
2024-02-26T11:24:57.579Z,38.55
2024-02-26T11:25:57.582Z,38.70
2024-02-26T11:26:57.595Z,38.65
2024-02-26T11:27:57.580Z,38.77
2024-02-26T11:28:57.579Z,38.70
2024-02-26T11:29:57.614Z,38.79
2024-02-26T11:30:57.584Z,38.67
2024-02-26T11:31:58.121Z,38.80
2024-02-26T11:32:57.709Z,38.52
2024-02-26T11:33:57.816Z,38.57
2024-02-26T11:34:57.681Z,38.59
2024-02-26T11:35:57.651Z,38.51
2024-02-26T11:36:58.012Z,38.21
2024-02-26T11:37:57.804Z,38.41
2024-02-26T11:38:57.610Z,38.30
2024-02-26T11:39:57.595Z,38.08
2024-02-26T11:40:57.589Z,37.93
2024-02-26T11:41:58.066Z,37.82
2024-02-26T11:42:57.600Z,37.93
2024-02-26T11:43:57.610Z,37.63
2024-02-26T11:44:57.603Z,37.59
2024-02-26T11:45:57.604Z,37.60
2024-02-26T11:46:58.054Z,37.64
2024-02-26T11:47:57.960Z,37.52
2024-02-26T11:48:57.696Z,37.48
2024-02-26T11:49:57.644Z,37.52
2024-02-26T11:50:57.680Z,37.37
2024-02-26T11:51:57.608Z,37.32
2024-02-26T11:52:57.659Z,37.39
2024-02-26T11:53:57.636Z,37.48
2024-02-26T11:54:57.610Z,37.43
2024-02-26T11:55:57.623Z,37.37
2024-02-26T11:56:57.672Z,37.33
2024-02-26T11:57:57.645Z,37.29
2024-02-26T11:58:57.630Z,37.17
2024-02-26T11:59:57.630Z,37.35
2024-02-26T12:00:57.641Z,37.28
2024-02-26T12:02:00.151Z,37.26
2024-02-26T12:02:57.665Z,37.15
2024-02-26T12:03:57.750Z,37.18
2024-02-26T12:04:57.677Z,37.12
2024-02-26T12:05:57.702Z,37.06
2024-02-26T12:06:57.857Z,37.02
2024-02-26T12:07:57.638Z,36.89
2024-02-26T12:08:57.694Z,36.70
2024-02-26T12:09:57.639Z,36.79
2024-02-26T12:10:57.650Z,36.80
2024-02-26T12:11:57.730Z,37.21
2024-02-26T12:12:57.712Z,37.24
2024-02-26T12:13:57.653Z,37.46
2024-02-26T12:14:57.787Z,37.36
2024-02-26T12:15:57.704Z,37.66
2024-02-26T12:16:57.638Z,38.01
2024-02-26T12:17:57.705Z,38.31
2024-02-26T12:18:57.726Z,38.27
2024-02-26T12:19:57.787Z,38.27
2024-02-26T12:20:57.805Z,38.22
2024-02-26T12:21:58.055Z,38.21
2024-02-26T12:22:57.675Z,38.21
2024-02-26T12:23:57.690Z,38.26
2024-02-26T12:24:57.741Z,38.27
2024-02-26T12:25:57.666Z,38.31
2024-02-26T12:26:58.139Z,38.33
2024-02-26T12:27:57.660Z,38.37
2024-02-26T12:28:57.675Z,38.40
2024-02-26T12:29:57.704Z,38.44
2024-02-26T12:30:57.671Z,38.48
2024-02-26T12:31:58.082Z,38.49
2024-02-26T12:32:57.753Z,38.51
2024-02-26T12:33:57.761Z,38.52
2024-02-26T12:34:58.099Z,38.56
2024-02-26T12:35:57.981Z,38.58
2024-02-26T12:36:57.677Z,38.59
2024-02-26T12:37:57.706Z,38.63
2024-02-26T12:38:57.708Z,38.66
2024-02-26T12:39:58.050Z,38.68
2024-02-26T12:40:57.680Z,38.68
2024-02-26T12:41:58.093Z,38.70
2024-02-26T12:42:57.696Z,38.72
2024-02-26T12:43:57.680Z,38.73
2024-02-26T12:44:57.708Z,38.73
2024-02-26T12:45:57.685Z,38.81
2024-02-26T12:46:58.063Z,38.82
2024-02-26T12:47:57.738Z,39.10
2024-02-26T12:48:57.829Z,39.71
2024-02-26T12:49:57.834Z,39.81
2024-02-26T12:50:57.729Z,39.75
2024-02-26T12:51:57.840Z,39.45
2024-02-26T12:52:57.698Z,39.23